createdAt,value
2023-03-23T16:00:41.207Z,2.00
2023-03-23T16:05:46.267Z,2.30
2023-03-23T16:10:50.775Z,1.95
2023-03-23T16:15:52.407Z,2.03
2023-03-23T16:20:53.950Z,2.15
2023-03-23T16:25:55.493Z,3.17
2023-03-23T16:30:57.076Z,3.47
2023-03-23T16:35:58.777Z,2.55
2023-03-23T16:41:00.506Z,2.85
2023-03-23T16:46:02.341Z,2.25
2023-03-23T16:51:04.020Z,2.20
2023-03-23T16:56:05.982Z,2.42
2023-03-23T17:01:08.040Z,1.83
2023-03-23T17:06:09.795Z,2.33
2023-03-23T17:11:11.454Z,2.28
2023-03-23T17:16:13.050Z,2.35
2023-03-23T17:21:14.665Z,2.72
2023-03-23T17:26:16.435Z,2.95
2023-03-23T17:31:18.226Z,2.42
2023-03-23T17:36:19.866Z,2.63
2023-03-23T17:41:21.461Z,2.67
2023-03-23T17:46:23.098Z,2.90
2023-03-23T17:51:24.677Z,4.43
2023-03-23T17:56:26.282Z,3.10
2023-03-23T18:01:27.953Z,2.55
2023-03-23T18:06:29.501Z,3.30
2023-03-23T18:11:31.187Z,2.08
2023-03-23T18:16:33.086Z,2.20
2023-03-23T18:21:34.619Z,2.33
2023-03-23T18:26:36.446Z,2.10
2023-03-23T18:31:40.158Z,1.42
2023-03-23T18:36:44.286Z,1.95
2023-03-23T18:41:45.954Z,1.70
2023-03-23T18:46:47.497Z,1.90
2023-03-23T18:51:49.201Z,2.17
2023-03-23T18:56:50.787Z,1.98
2023-03-23T19:01:52.464Z,1.70
2023-03-23T19:06:54.054Z,2.10
2023-03-23T19:11:56.299Z,2.00
2023-03-23T19:16:57.833Z,1.80
2023-03-23T19:22:00.119Z,1.90
2023-03-23T19:27:01.945Z,1.45
2023-03-23T19:32:03.574Z,1.60
2023-03-23T19:37:10.207Z,1.67
2023-03-23T19:42:16.733Z,2.05
2023-03-23T19:47:18.509Z,1.65
2023-03-23T19:52:20.137Z,1.70
2023-03-23T19:57:22.310Z,2.00
2023-03-23T20:02:23.963Z,1.88
2023-03-23T20:07:26.957Z,2.28
2023-03-23T20:12:28.579Z,2.08
2023-03-23T20:17:30.662Z,1.90
2023-03-23T20:22:32.248Z,1.80
2023-03-23T20:27:35.000Z,1.60
2023-03-23T20:32:37.352Z,1.88
2023-03-23T20:37:40.333Z,1.80
2023-03-23T20:42:44.088Z,1.40
2023-03-23T20:47:46.149Z,1.50
2023-03-23T20:52:48.029Z,1.40
2023-03-23T20:57:49.559Z,1.30
2023-03-23T21:02:54.093Z,1.58
2023-03-23T21:07:57.977Z,1.70
2023-03-23T21:13:00.109Z,1.95
2023-03-23T21:18:01.723Z,1.90
2023-03-23T21:23:06.376Z,1.88
2023-03-23T21:28:08.928Z,1.60
2023-03-23T21:33:11.556Z,1.48
2023-03-23T21:38:14.693Z,1.52
2023-03-23T21:43:16.877Z,1.23
2023-03-23T21:48:18.867Z,3.20
2023-03-23T21:53:22.331Z,3.42
2023-03-23T21:58:27.387Z,2.58
2023-03-23T22:03:33.120Z,2.55
2023-03-23T22:08:37.245Z,2.50
2023-03-23T22:13:40.649Z,2.03
2023-03-23T22:18:43.406Z,2.17
2023-03-23T22:23:46.189Z,2.00
2023-03-23T22:28:49.538Z,1.60
2023-03-23T22:33:55.497Z,2.10
2023-03-23T22:38:57.144Z,2.30
2023-03-23T22:43:58.801Z,2.45
2023-03-23T22:49:00.640Z,2.50
2023-03-23T22:54:02.309Z,2.25
2023-03-23T22:59:07.792Z,2.33
2023-03-23T23:04:09.569Z,2.30
2023-03-23T23:09:11.190Z,4.93
2023-03-23T23:14:12.760Z,5.10
2023-03-23T23:19:14.916Z,7.10
2023-03-23T23:24:17.087Z,4.43
2023-03-23T23:29:18.801Z,3.80
2023-03-23T23:34:22.134Z,3.90
2023-03-23T23:39:23.645Z,3.65
2023-03-23T23:44:25.575Z,3.50
2023-03-23T23:49:29.911Z,2.88
2023-03-23T23:54:31.755Z,3.35
2023-03-23T23:59:33.408Z,2.65
